EBBR METAR and TAF | Updated Today

EBBR METAR

Brussels Airport

Observation time: 32 min. ago

EBBR 061920Z 19006KT CAVOK 11/08 Q1029 NOSIG

Need help? Read our tutorial on how to read METARs or read the parsed version below.

Brussels Airport (EBBR) METAR

  • Weather conditions on Thu, 06 Oct 2022 19:20:00 +0000 (32 min. ago):
  • Present conditions: Dry
  • Clouds: Clear skies
  • Visibility: Greater than 10 km
  • Wind: 190 degrees at 6 knots
  • Temperature: 11 celsius
  • Dew point: 8 celsius
  • Pressure: 1029 millibars
  • Remarks: None


Useful to know...

EBBR TAF

Brussels Airport

TAF EBBR 061702Z 0618/0724 21006KT CAVOK
Observation time: 2:50 hr. ago
Need help? Read our tutorial on how to read TAFs or read the parsed version below.

Parsed version of TAF for Brussels Airport (EBBR)

  • From 06 October at 18:00 UTC, to day 07 of the month at 24:00 UTC
  • Visibility: Greater than 10 km
  • Wind: 210 degrees at 6